createdAt,value
2022-11-06T00:00:17.012Z,103
2022-11-06T00:01:16.796Z,103
2022-11-06T00:02:25.084Z,103
2022-11-06T00:04:16.756Z,103
2022-11-06T00:05:16.986Z,103
2022-11-06T00:06:17.439Z,103
2022-11-06T00:07:16.876Z,104
2022-11-06T00:08:18.437Z,104
2022-11-06T00:09:16.659Z,104
2022-11-06T00:10:16.998Z,104
2022-11-06T00:11:17.273Z,104
2022-11-06T00:12:16.664Z,104
2022-11-06T00:13:17.146Z,104
2022-11-06T00:14:17.391Z,104
2022-11-06T00:15:16.864Z,104
2022-11-06T00:16:17.330Z,104
2022-11-06T00:17:16.811Z,104
2022-11-06T00:18:18.174Z,104
2022-11-06T00:19:17.485Z,104
2022-11-06T00:20:17.061Z,104
2022-11-06T00:21:17.274Z,104
2022-11-06T00:22:16.686Z,104
2022-11-06T00:23:16.796Z,104
2022-11-06T00:24:17.132Z,104
2022-11-06T00:25:16.645Z,104
2022-11-06T00:26:16.980Z,104
2022-11-06T00:27:17.499Z,104
2022-11-06T00:28:18.065Z,104
2022-11-06T00:29:17.240Z,104
2022-11-06T00:30:16.687Z,104
2022-11-06T00:31:17.167Z,104
2022-11-06T00:32:17.417Z,104
2022-11-06T00:33:16.883Z,104
2022-11-06T00:34:17.163Z,104
2022-11-06T00:35:17.406Z,104
2022-11-06T00:36:16.770Z,104
2022-11-06T00:37:17.119Z,104
2022-11-06T00:38:18.431Z,104
2022-11-06T00:39:16.842Z,104
2022-11-06T00:40:17.224Z,104
2022-11-06T00:41:16.566Z,104
2022-11-06T00:42:16.880Z,104
2022-11-06T00:43:17.190Z,104
2022-11-06T00:44:16.571Z,104
2022-11-06T00:45:16.746Z,104
2022-11-06T00:46:17.092Z,104
2022-11-06T00:47:17.571Z,104
2022-11-06T00:48:17.850Z,104
2022-11-06T00:49:17.363Z,104
2022-11-06T00:50:16.620Z,104
2022-11-06T00:51:16.979Z,104
2022-11-06T00:52:17.386Z,104
2022-11-06T00:53:16.863Z,104
2022-11-06T00:54:17.076Z,104
2022-11-06T00:55:17.336Z,104
2022-11-06T00:56:16.695Z,104
2022-11-06T00:57:16.832Z,104
2022-11-06T00:58:17.568Z,104
2022-11-06T00:59:16.662Z,104
2022-11-06T01:00:17.061Z,104
2022-11-06T01:01:17.524Z,104
2022-11-06T01:02:17.505Z,104
2022-11-06T01:03:17.451Z,104
2022-11-06T01:04:17.532Z,104
2022-11-06T01:05:16.879Z,104
2022-11-06T01:06:17.300Z,104
2022-11-06T01:07:16.619Z,100
2022-11-06T01:08:18.357Z,100
2022-11-06T01:09:17.155Z,100
2022-11-06T01:10:16.566Z,100
2022-11-06T01:11:17.144Z,100
2022-11-06T01:12:22.497Z,100
2022-11-06T01:13:16.840Z,100
2022-11-06T01:14:17.320Z,100
2022-11-06T01:15:16.640Z,100
2022-11-06T01:16:16.968Z,100
2022-11-06T01:17:17.211Z,100
2022-11-06T01:18:17.656Z,100
2022-11-06T01:19:16.828Z,100
2022-11-06T01:20:17.271Z,100
2022-11-06T01:21:16.750Z,100
2022-11-06T01:22:17.083Z,100
2022-11-06T01:23:17.385Z,100
2022-11-06T01:24:17.171Z,100
2022-11-06T01:25:17.148Z,100
2022-11-06T01:26:37.558Z,100
2022-11-06T01:27:46.762Z,100
2022-11-06T01:29:17.323Z,100
2022-11-06T01:30:16.786Z,100
2022-11-06T01:31:17.161Z,100
2022-11-06T01:32:17.526Z,100
2022-11-06T01:33:16.869Z,100
2022-11-06T01:34:17.255Z,100
2022-11-06T01:35:16.670Z,100
2022-11-06T01:36:16.935Z,100
2022-11-06T01:37:22.551Z,100
2022-11-06T01:38:17.413Z,100
2022-11-06T01:39:16.857Z,100
2022-11-06T01:40:17.270Z,100
2022-11-06T01:41:16.556Z,100
2022-11-06T01:42:16.991Z,100
2022-11-06T01:43:17.327Z,100
2022-11-06T01:44:18.135Z,100
2022-11-06T01:45:17.140Z,100
2022-11-06T01:46:17.508Z,100
2022-11-06T01:47:16.867Z,100
2022-11-06T01:48:18.059Z,100
2022-11-06T01:49:16.463Z,100
2022-11-06T01:50:16.790Z,100
2022-11-06T01:51:17.172Z,100
2022-11-06T01:52:16.511Z,100
2022-11-06T01:53:16.963Z,100
2022-11-06T01:54:17.343Z,100
2022-11-06T01:55:16.724Z,100
2022-11-06T01:56:17.018Z,100
2022-11-06T01:57:17.267Z,100
2022-11-06T01:58:17.788Z,100
2022-11-06T01:59:16.999Z,100
2022-11-06T02:00:17.426Z,100
2022-11-06T02:01:16.693Z,100
2022-11-06T02:02:17.916Z,100
2022-11-06T02:03:17.698Z,100
2022-11-06T02:04:16.782Z,100
2022-11-06T02:05:17.156Z,100
2022-11-06T02:06:17.544Z,100
2022-11-06T02:07:16.724Z,106
2022-11-06T02:08:17.700Z,106
2022-11-06T02:09:16.811Z,106
2022-11-06T02:10:16.922Z,106
2022-11-06T02:11:17.145Z,106
2022-11-06T02:12:16.587Z,106
2022-11-06T02:13:16.921Z,106
2022-11-06T02:14:16.684Z,106
2022-11-06T02:15:17.031Z,106
2022-11-06T02:16:17.426Z,106
2022-11-06T02:17:16.837Z,106
2022-11-06T02:18:18.350Z,106
2022-11-06T02:19:17.403Z,106
2022-11-06T02:20:16.717Z,106
2022-11-06T02:21:16.969Z,106
2022-11-06T02:22:17.328Z,106
2022-11-06T02:23:16.805Z,106
2022-11-06T02:24:17.179Z,106
2022-11-06T02:25:17.571Z,106
2022-11-06T02:26:16.912Z,106
2022-11-06T02:27:17.228Z,106
2022-11-06T02:28:17.537Z,106
2022-11-06T02:29:16.911Z,106
2022-11-06T02:30:17.332Z,106
2022-11-06T02:31:16.661Z,106
2022-11-06T02:32:16.873Z,106
2022-11-06T02:33:17.269Z,106
2022-11-06T02:34:16.870Z,106
2022-11-06T02:35:17.260Z,106
2022-11-06T02:36:16.633Z,106
2022-11-06T02:37:16.981Z,106
2022-11-06T02:38:18.358Z,106
2022-11-06T02:39:16.679Z,106
2022-11-06T02:40:16.927Z,106
2022-11-06T02:41:17.342Z,106
2022-11-06T02:42:16.556Z,106
2022-11-06T02:43:16.883Z,106
2022-11-06T02:44:17.314Z,106
2022-11-06T02:45:16.673Z,106
2022-11-06T02:46:17.077Z,106
2022-11-06T02:47:17.405Z,106
2022-11-06T02:48:18.361Z,106
2022-11-06T02:49:17.095Z,106
2022-11-06T02:50:17.433Z,106
2022-11-06T02:51:16.749Z,106
2022-11-06T02:52:17.116Z,106
2022-11-06T02:53:17.454Z,106
2022-11-06T02:54:16.915Z,106
2022-11-06T02:55:17.162Z,106
2022-11-06T02:56:17.460Z,106
2022-11-06T02:57:17.002Z,106
2022-11-06T02:58:18.363Z,106
2022-11-06T02:59:16.648Z,106
2022-11-06T03:00:17.210Z,106
2022-11-06T03:01:16.713Z,106
2022-11-06T03:02:17.128Z,106
2022-11-06T03:03:17.093Z,106
2022-11-06T03:04:16.530Z,106
2022-11-06T03:05:16.899Z,106
2022-11-06T03:06:17.298Z,106
2022-11-06T03:07:16.648Z,106
2022-11-06T03:08:18.409Z,104
2022-11-06T03:09:17.500Z,104
2022-11-06T03:10:16.866Z,104
2022-11-06T03:11:17.203Z,104
2022-11-06T03:12:17.515Z,104
2022-11-06T03:13:16.950Z,104
2022-11-06T03:14:17.061Z,104
2022-11-06T03:15:17.478Z,104
2022-11-06T03:16:16.975Z,104
2022-11-06T03:17:17.279Z,104
2022-11-06T03:18:18.098Z,104
2022-11-06T03:19:17.114Z,104
2022-11-06T03:20:17.379Z,104
2022-11-06T03:21:16.774Z,104
2022-11-06T03:22:17.542Z,104
2022-11-06T03:23:16.578Z,104
2022-11-06T03:24:16.948Z,104
2022-11-06T03:25:17.347Z,104
2022-11-06T03:26:17.254Z,104
2022-11-06T03:27:16.695Z,104
2022-11-06T03:28:18.232Z,104
2022-11-06T03:29:17.600Z,104
2022-11-06T03:30:23.310Z,104
2022-11-06T03:31:17.195Z,104
2022-11-06T03:32:17.492Z,104
2022-11-06T03:33:16.901Z,104
2022-11-06T03:34:17.167Z,104
2022-11-06T03:35:17.570Z,104
2022-11-06T03:36:16.967Z,104
2022-11-06T03:37:17.388Z,104
2022-11-06T03:38:18.233Z,104
2022-11-06T03:39:17.109Z,104
2022-11-06T03:40:17.427Z,104
2022-11-06T03:41:16.781Z,104
2022-11-06T03:42:17.163Z,104
2022-11-06T03:43:17.585Z,104
2022-11-06T03:44:16.849Z,104
2022-11-06T03:45:17.315Z,104
2022-11-06T03:46:17.461Z,104
2022-11-06T03:47:16.815Z,104
2022-11-06T03:48:18.711Z,104
2022-11-06T03:49:16.493Z,104
2022-11-06T03:50:17.085Z,104
2022-11-06T03:51:16.755Z,104
2022-11-06T03:52:17.126Z,104
2022-11-06T03:53:17.542Z,104
2022-11-06T03:54:16.934Z,104
2022-11-06T03:55:17.194Z,104
2022-11-06T03:56:17.323Z,104
2022-11-06T03:57:16.738Z,104
2022-11-06T03:58:18.908Z,104
2022-11-06T03:59:18.235Z,104
2022-11-06T04:00:17.224Z,104
2022-11-06T04:01:16.800Z,104
2022-11-06T04:02:17.998Z,104
2022-11-06T04:03:17.638Z,104
2022-11-06T04:04:16.807Z,104
2022-11-06T04:05:17.098Z,104
2022-11-06T04:06:17.420Z,104
2022-11-06T04:07:16.800Z,104
2022-11-06T04:08:18.432Z,103
2022-11-06T04:09:16.662Z,103
2022-11-06T04:10:17.104Z,103
2022-11-06T04:11:16.604Z,103
2022-11-06T04:12:16.929Z,103
2022-11-06T04:13:17.231Z,103
2022-11-06T04:14:16.510Z,103
2022-11-06T04:15:16.939Z,103
2022-11-06T04:16:17.337Z,103
2022-11-06T04:17:16.911Z,103
2022-11-06T04:18:18.329Z,103
2022-11-06T04:19:17.358Z,103
2022-11-06T04:20:16.788Z,103
2022-11-06T04:21:17.159Z,103
2022-11-06T04:22:17.538Z,103
2022-11-06T04:23:16.937Z,103
2022-11-06T04:24:17.271Z,103
2022-11-06T04:25:16.596Z,103
2022-11-06T04:26:17.011Z,103
2022-11-06T04:27:17.267Z,103
2022-11-06T04:28:16.844Z,103
2022-11-06T04:29:16.921Z,103
2022-11-06T04:30:17.458Z,103
2022-11-06T04:31:16.843Z,103
2022-11-06T04:32:17.176Z,103
2022-11-06T04:33:17.482Z,103
2022-11-06T04:34:16.563Z,103
2022-11-06T04:35:16.926Z,103
2022-11-06T04:36:17.308Z,103
2022-11-06T04:37:16.605Z,103
2022-11-06T04:38:18.260Z,103
2022-11-06T04:39:17.228Z,103
2022-11-06T04:40:17.533Z,103
2022-11-06T04:41:16.925Z,103
2022-11-06T04:42:17.372Z,103
2022-11-06T04:43:16.707Z,103
2022-11-06T04:44:17.000Z,103
2022-11-06T04:45:17.388Z,103
2022-11-06T04:46:16.697Z,103
2022-11-06T04:47:17.060Z,103
2022-11-06T04:48:18.638Z,103
2022-11-06T04:49:16.766Z,103
2022-11-06T04:50:17.080Z,103
2022-11-06T04:51:17.456Z,103
2022-11-06T04:52:16.818Z,103
2022-11-06T04:53:17.188Z,103
2022-11-06T04:54:16.570Z,103
2022-11-06T04:55:17.009Z,103
2022-11-06T04:56:23.800Z,103
2022-11-06T04:58:18.116Z,103
2022-11-06T04:59:16.980Z,103
2022-11-06T05:00:17.340Z,103
2022-11-06T05:01:17.363Z,103
2022-11-06T05:02:17.903Z,103
2022-11-06T05:03:16.651Z,103
2022-11-06T05:04:16.975Z,103
2022-11-06T05:05:17.417Z,103
2022-11-06T05:06:17.209Z,103
2022-11-06T05:07:16.580Z,103
2022-11-06T05:08:18.116Z,104
2022-11-06T05:09:17.230Z,104
2022-11-06T05:10:16.705Z,104
2022-11-06T05:11:16.942Z,104
2022-11-06T05:12:17.387Z,104
2022-11-06T05:13:16.782Z,104
2022-11-06T05:14:17.178Z,104
2022-11-06T05:15:17.556Z,104
2022-11-06T05:16:16.853Z,104
2022-11-06T05:17:16.970Z,104
2022-11-06T05:18:18.726Z,104
2022-11-06T05:19:16.613Z,104
2022-11-06T05:20:17.275Z,104
2022-11-06T05:21:16.769Z,104
2022-11-06T05:22:17.013Z,104
2022-11-06T05:23:17.410Z,104
2022-11-06T05:24:16.815Z,104
2022-11-06T05:25:17.186Z,104
2022-11-06T05:26:17.530Z,104
2022-11-06T05:27:16.797Z,104
2022-11-06T05:28:18.372Z,104
2022-11-06T05:29:17.507Z,104
2022-11-06T05:30:16.929Z,104
2022-11-06T05:31:17.304Z,104
2022-11-06T05:32:16.703Z,104
2022-11-06T05:33:17.096Z,104
2022-11-06T05:34:17.446Z,104
2022-11-06T05:35:16.913Z,104
2022-11-06T05:36:17.188Z,104
2022-11-06T05:37:17.766Z,104
2022-11-06T05:38:18.166Z,104
2022-11-06T05:39:17.309Z,104
2022-11-06T05:40:16.628Z,104
2022-11-06T05:41:17.317Z,104
2022-11-06T05:42:17.390Z,104
2022-11-06T05:43:16.576Z,104
2022-11-06T05:44:17.024Z,104
2022-11-06T05:45:17.427Z,104
2022-11-06T05:46:55.081Z,104
2022-11-06T05:48:18.433Z,104
2022-11-06T05:49:16.580Z,104
2022-11-06T05:50:16.934Z,104
2022-11-06T05:51:17.246Z,104
2022-11-06T05:52:17.528Z,104
2022-11-06T05:53:16.939Z,104
2022-11-06T05:54:17.028Z,104
2022-11-06T05:55:22.350Z,104
2022-11-06T05:56:16.907Z,104
2022-11-06T05:57:17.297Z,104
2022-11-06T05:58:17.851Z,104
2022-11-06T05:59:17.136Z,104
2022-11-06T06:00:17.372Z,104
2022-11-06T06:01:16.652Z,104
2022-11-06T06:02:17.553Z,104
2022-11-06T06:03:16.730Z,104
2022-11-06T06:04:16.971Z,104
2022-11-06T06:05:17.264Z,104
2022-11-06T06:06:16.753Z,104
2022-11-06T06:07:17.122Z,104
2022-11-06T06:08:18.492Z,102
2022-11-06T06:09:16.975Z,102
2022-11-06T06:10:17.269Z,102
2022-11-06T06:11:16.571Z,102
2022-11-06T06:12:16.877Z,102
2022-11-06T06:13:16.637Z,102
2022-11-06T06:14:16.995Z,102
2022-11-06T06:15:17.371Z,102
2022-11-06T06:16:16.755Z,102
2022-11-06T06:17:17.075Z,102
2022-11-06T06:18:18.628Z,102
2022-11-06T06:19:16.767Z,102
2022-11-06T06:20:17.132Z,102
2022-11-06T06:21:17.393Z,102
2022-11-06T06:22:16.818Z,102
2022-11-06T06:23:18.056Z,102
2022-11-06T06:24:17.771Z,102
2022-11-06T06:25:29.689Z,102
2022-11-06T06:27:16.742Z,102
2022-11-06T06:28:18.335Z,102
2022-11-06T06:29:17.455Z,102
2022-11-06T06:30:16.942Z,102
2022-11-06T06:31:17.224Z,102
2022-11-06T06:32:17.531Z,102
2022-11-06T06:33:16.836Z,102
2022-11-06T06:34:17.162Z,102
2022-11-06T06:35:17.524Z,102
2022-11-06T06:36:16.968Z,102
2022-11-06T06:37:22.501Z,102
2022-11-06T06:38:17.958Z,102
2022-11-06T06:39:17.077Z,102
2022-11-06T06:40:17.813Z,102
2022-11-06T06:41:16.768Z,102
2022-11-06T06:42:17.060Z,102
2022-11-06T06:43:17.445Z,102
2022-11-06T06:44:16.848Z,102
2022-11-06T06:45:17.457Z,102
2022-11-06T06:46:16.865Z,102
2022-11-06T06:47:17.241Z,102
2022-11-06T06:48:17.883Z,102
2022-11-06T06:49:16.820Z,102
2022-11-06T06:50:17.201Z,102
2022-11-06T06:51:23.648Z,102
2022-11-06T06:52:17.120Z,102
2022-11-06T06:53:17.355Z,102
2022-11-06T06:54:16.734Z,102
2022-11-06T06:55:17.088Z,102
2022-11-06T06:56:17.599Z,102
2022-11-06T06:57:16.880Z,102
2022-11-06T06:58:25.652Z,102
2022-11-06T07:00:17.184Z,102
2022-11-06T07:01:17.672Z,102
2022-11-06T07:02:16.837Z,102
2022-11-06T07:03:16.989Z,102
2022-11-06T07:04:17.307Z,102
2022-11-06T07:05:16.895Z,102
2022-11-06T07:06:17.171Z,102
2022-11-06T07:07:17.571Z,102
2022-11-06T07:08:18.084Z,102
2022-11-06T07:09:17.278Z,102
2022-11-06T07:10:16.659Z,102
2022-11-06T07:11:17.143Z,102
2022-11-06T07:12:17.626Z,102
2022-11-06T07:13:17.793Z,102
2022-11-06T07:14:17.098Z,102
2022-11-06T07:15:17.477Z,102
2022-11-06T07:16:16.819Z,102
2022-11-06T07:17:17.215Z,102
2022-11-06T07:18:18.773Z,102
2022-11-06T07:19:16.891Z,102
2022-11-06T07:20:17.253Z,102
2022-11-06T07:21:16.622Z,102
2022-11-06T07:22:18.376Z,102
2022-11-06T07:24:16.771Z,102
2022-11-06T07:25:17.037Z,102
2022-11-06T07:26:17.443Z,102
2022-11-06T07:27:16.732Z,102
2022-11-06T07:28:18.020Z,102
2022-11-06T07:29:17.277Z,102
2022-11-06T07:30:16.708Z,102
2022-11-06T07:31:17.152Z,102
2022-11-06T07:32:17.556Z,102
2022-11-06T07:33:16.905Z,102
2022-11-06T07:34:17.128Z,102
2022-11-06T07:35:17.425Z,102
2022-11-06T07:36:16.763Z,102
2022-11-06T07:37:16.998Z,102
2022-11-06T07:38:17.844Z,102
2022-11-06T07:39:17.128Z,102
2022-11-06T07:40:17.543Z,102
2022-11-06T07:41:16.911Z,102
2022-11-06T07:42:17.246Z,102
2022-11-06T07:43:16.714Z,102
2022-11-06T07:44:17.078Z,102
2022-11-06T07:45:17.531Z,102
2022-11-06T07:46:16.892Z,102
2022-11-06T07:47:17.239Z,102
2022-11-06T07:48:17.608Z,102
2022-11-06T07:49:16.973Z,102
2022-11-06T07:50:17.336Z,102
2022-11-06T07:51:16.700Z,102
2022-11-06T07:52:17.144Z,102
2022-11-06T07:53:18.665Z,102
2022-11-06T07:54:16.827Z,102
2022-11-06T07:55:17.278Z,102
2022-11-06T07:56:17.569Z,102
2022-11-06T07:57:16.775Z,102
2022-11-06T07:58:18.448Z,102
2022-11-06T07:59:17.540Z,102
2022-11-06T08:00:16.830Z,102
2022-11-06T08:01:24.749Z,102
2022-11-06T08:02:17.576Z,102
2022-11-06T08:03:17.097Z,102
2022-11-06T08:04:17.449Z,102
2022-11-06T08:05:16.990Z,102
2022-11-06T08:06:17.139Z,102
2022-11-06T08:07:17.394Z,105
2022-11-06T08:08:18.032Z,105
2022-11-06T08:09:17.022Z,105
2022-11-06T08:10:17.409Z,105
2022-11-06T08:11:16.831Z,105
2022-11-06T08:12:17.638Z,105
2022-11-06T08:13:17.364Z,105
2022-11-06T08:14:16.726Z,105
2022-11-06T08:15:17.138Z,105
2022-11-06T08:16:17.524Z,105
2022-11-06T08:17:16.904Z,105
2022-11-06T08:18:18.690Z,105
2022-11-06T08:19:17.485Z,105
2022-11-06T08:20:16.873Z,105
2022-11-06T08:21:17.283Z,105
2022-11-06T08:22:17.582Z,105
2022-11-06T08:23:17.028Z,105
2022-11-06T08:24:24.425Z,105
2022-11-06T08:26:17.138Z,105
2022-11-06T08:27:17.490Z,105
2022-11-06T08:28:17.993Z,105
2022-11-06T08:29:16.937Z,105
2022-11-06T08:30:17.370Z,105
2022-11-06T08:31:16.786Z,105
2022-11-06T08:32:17.170Z,105
2022-11-06T08:33:17.609Z,105
2022-11-06T08:34:16.977Z,105
2022-11-06T08:35:17.405Z,105
2022-11-06T08:36:16.698Z,105
2022-11-06T08:37:17.007Z,105
2022-11-06T08:38:18.544Z,105
2022-11-06T08:39:16.552Z,105
2022-11-06T08:40:16.845Z,105
2022-11-06T08:41:17.260Z,105
2022-11-06T08:42:16.645Z,105
2022-11-06T08:43:18.579Z,105
2022-11-06T08:44:16.796Z,105
2022-11-06T08:45:17.215Z,105
2022-11-06T08:46:16.611Z,105
2022-11-06T08:47:17.017Z,105
2022-11-06T08:48:17.369Z,105
2022-11-06T08:49:16.719Z,105
2022-11-06T08:50:17.228Z,105
2022-11-06T08:51:17.296Z,105
2022-11-06T08:52:16.727Z,105
2022-11-06T08:53:19.224Z,105
2022-11-06T08:54:17.781Z,105
2022-11-06T08:55:16.797Z,105
2022-11-06T08:56:17.274Z,105
2022-11-06T08:57:17.615Z,105
2022-11-06T08:58:16.857Z,105
2022-11-06T08:59:17.181Z,105
2022-11-06T09:00:17.659Z,105
2022-11-06T09:01:17.161Z,105
2022-11-06T09:02:17.643Z,105
2022-11-06T09:03:19.119Z,105
2022-11-06T09:04:16.951Z,105
2022-11-06T09:05:17.335Z,105
2022-11-06T09:06:16.811Z,105
2022-11-06T09:07:17.175Z,105
2022-11-06T09:08:17.584Z,105
2022-11-06T09:09:16.824Z,105
2022-11-06T09:10:17.206Z,105
2022-11-06T09:11:17.535Z,105
2022-11-06T09:12:16.830Z,105
2022-11-06T09:13:17.678Z,105
2022-11-06T09:14:17.678Z,105
2022-11-06T09:15:17.138Z,105
2022-11-06T09:16:23.955Z,105
2022-11-06T09:17:16.878Z,105
2022-11-06T09:18:17.227Z,105
2022-11-06T09:19:17.581Z,105
2022-11-06T09:20:16.878Z,105
2022-11-06T09:21:17.188Z,105
2022-11-06T09:22:17.466Z,105
2022-11-06T09:23:18.001Z,105
2022-11-06T09:24:17.438Z,105
2022-11-06T09:26:17.182Z,105
2022-11-06T09:27:17.598Z,105
2022-11-06T09:28:16.933Z,105
2022-11-06T09:29:17.318Z,105
2022-11-06T09:30:16.747Z,105
2022-11-06T09:31:17.009Z,105
2022-11-06T09:32:17.385Z,105
2022-11-06T09:33:23.265Z,105
2022-11-06T09:34:16.917Z,105
2022-11-06T09:35:17.287Z,105
2022-11-06T09:36:16.855Z,105
2022-11-06T09:37:17.297Z,105
2022-11-06T09:38:17.809Z,105
2022-11-06T09:39:16.919Z,105
2022-11-06T09:40:17.273Z,105
2022-11-06T09:41:17.566Z,105
2022-11-06T09:42:16.940Z,105
2022-11-06T09:43:23.770Z,105
2022-11-06T09:45:17.060Z,105
2022-11-06T09:46:17.411Z,105
2022-11-06T09:47:16.788Z,105
2022-11-06T09:48:17.265Z,105
2022-11-06T09:49:17.558Z,105
2022-11-06T09:50:16.917Z,105
2022-11-06T09:51:17.573Z,105
2022-11-06T09:52:18.106Z,105
2022-11-06T09:53:17.979Z,105
2022-11-06T09:54:17.232Z,105
2022-11-06T09:55:17.338Z,105
2022-11-06T09:56:16.705Z,105
2022-11-06T09:57:17.155Z,105
2022-11-06T09:58:18.780Z,105
2022-11-06T09:59:16.965Z,105
2022-11-06T10:00:17.507Z,105
2022-11-06T10:01:29.886Z,105
2022-11-06T10:03:18.540Z,105
2022-11-06T10:04:16.782Z,105
2022-11-06T10:05:17.095Z,105
2022-11-06T10:06:17.484Z,105
2022-11-06T10:07:16.807Z,104
2022-11-06T10:08:17.668Z,104
2022-11-06T10:09:17.400Z,104
2022-11-06T10:10:16.954Z,104
2022-11-06T10:11:17.358Z,104
2022-11-06T10:12:16.835Z,104
2022-11-06T10:13:22.432Z,104
2022-11-06T10:14:17.280Z,104
2022-11-06T10:15:16.632Z,104
2022-11-06T10:16:17.017Z,104
2022-11-06T10:17:17.492Z,104
2022-11-06T10:18:17.922Z,104
2022-11-06T10:19:17.120Z,104
2022-11-06T10:20:19.769Z,104
2022-11-06T10:21:16.671Z,104
2022-11-06T10:22:17.047Z,104
2022-11-06T10:23:16.688Z,104
2022-11-06T10:24:17.190Z,104
2022-11-06T10:25:17.406Z,104
2022-11-06T10:26:16.885Z,104
2022-11-06T10:27:17.165Z,104
2022-11-06T10:28:18.686Z,104
2022-11-06T10:29:16.851Z,104
2022-11-06T10:30:17.332Z,104
2022-11-06T10:31:16.771Z,104
2022-11-06T10:32:17.087Z,104
2022-11-06T10:33:17.484Z,104
2022-11-06T10:34:16.904Z,104
2022-11-06T10:35:17.095Z,104
2022-11-06T10:36:17.425Z,104
2022-11-06T10:37:16.802Z,104
2022-11-06T10:38:18.534Z,104
2022-11-06T10:39:17.515Z,104
2022-11-06T10:40:16.896Z,104
2022-11-06T10:41:17.245Z,104
2022-11-06T10:42:17.621Z,104
2022-11-06T10:43:16.969Z,104
2022-11-06T10:44:17.299Z,104
2022-11-06T10:45:16.502Z,104
2022-11-06T10:46:16.955Z,104
2022-11-06T10:47:17.420Z,104
2022-11-06T10:48:17.692Z,104
2022-11-06T10:49:17.046Z,104
2022-11-06T10:50:17.389Z,104
2022-11-06T10:51:16.710Z,104
2022-11-06T10:52:17.167Z,104
2022-11-06T10:53:17.400Z,104
2022-11-06T10:54:16.756Z,104
2022-11-06T10:55:17.063Z,104
2022-11-06T10:56:26.023Z,104
2022-11-06T10:57:16.819Z,104
2022-11-06T10:58:18.823Z,104
2022-11-06T10:59:16.704Z,104
2022-11-06T11:00:17.162Z,104
2022-11-06T11:01:18.081Z,104
2022-11-06T11:02:17.445Z,104
2022-11-06T11:03:17.252Z,104
2022-11-06T11:04:17.667Z,104
2022-11-06T11:05:16.962Z,104
2022-11-06T11:06:17.187Z,104
2022-11-06T11:07:23.957Z,102
2022-11-06T11:08:17.905Z,102
2022-11-06T11:09:17.297Z,102
2022-11-06T11:10:17.674Z,102
2022-11-06T11:11:17.095Z,102
2022-11-06T11:12:17.534Z,102
2022-11-06T11:13:17.441Z,102
2022-11-06T11:14:17.149Z,102
2022-11-06T11:15:17.588Z,102
2022-11-06T11:16:17.014Z,102
2022-11-06T11:17:17.163Z,102
2022-11-06T11:18:19.003Z,102
2022-11-06T11:19:16.915Z,102
2022-11-06T11:20:17.251Z,102
2022-11-06T11:21:17.619Z,102
2022-11-06T11:22:16.998Z,102
2022-11-06T11:23:17.710Z,102
2022-11-06T11:24:16.783Z,102
2022-11-06T11:25:17.061Z,102
2022-11-06T11:26:17.504Z,102
2022-11-06T11:27:17.640Z,102
2022-11-06T11:28:17.534Z,102
2022-11-06T11:29:17.289Z,102
2022-11-06T11:30:17.759Z,102
2022-11-06T11:31:17.146Z,102
2022-11-06T11:32:17.528Z,102
2022-11-06T11:33:16.803Z,102
2022-11-06T11:34:17.181Z,102
2022-11-06T11:35:17.561Z,102
2022-11-06T11:36:16.918Z,102
2022-11-06T11:37:17.354Z,102
2022-11-06T11:38:18.122Z,102
2022-11-06T11:39:17.147Z,102
2022-11-06T11:40:21.838Z,102
2022-11-06T11:41:16.841Z,102
2022-11-06T11:42:17.205Z,102
2022-11-06T11:43:17.462Z,102
2022-11-06T11:44:16.920Z,102
2022-11-06T11:45:17.472Z,102
2022-11-06T11:46:16.908Z,102
2022-11-06T11:47:17.637Z,102
2022-11-06T11:48:18.507Z,102
2022-11-06T11:49:16.677Z,102
2022-11-06T11:50:16.943Z,102
2022-11-06T11:51:17.386Z,102
2022-11-06T11:52:16.811Z,102
2022-11-06T11:53:19.037Z,102
2022-11-06T11:54:17.602Z,102
2022-11-06T11:55:16.851Z,102
2022-11-06T11:56:26.741Z,102
2022-11-06T11:57:16.318Z,102
2022-11-06T11:58:18.459Z,102
2022-11-06T11:59:16.718Z,102
2022-11-06T12:00:17.203Z,102
2022-11-06T12:01:17.444Z,102
2022-11-06T12:02:19.880Z,102
2022-11-06T12:03:17.506Z,102
2022-11-06T12:04:17.640Z,102
2022-11-06T12:05:17.253Z,102
2022-11-06T12:06:17.707Z,102
2022-11-06T12:07:17.018Z,98
2022-11-06T12:08:18.436Z,98
2022-11-06T12:09:17.587Z,98
2022-11-06T12:10:16.947Z,98
2022-11-06T12:11:17.274Z,98
2022-11-06T12:12:17.692Z,98
2022-11-06T12:13:17.085Z,98
2022-11-06T12:14:17.438Z,98
2022-11-06T12:15:16.899Z,98
2022-11-06T12:16:17.255Z,98
2022-11-06T12:17:17.627Z,98
2022-11-06T12:18:18.214Z,98
2022-11-06T12:19:17.140Z,98
2022-11-06T12:20:17.465Z,98
2022-11-06T12:21:16.949Z,98
2022-11-06T12:22:17.535Z,98
2022-11-06T12:23:16.842Z,98
2022-11-06T12:24:17.128Z,98
2022-11-06T12:25:17.536Z,98
2022-11-06T12:26:16.895Z,98
2022-11-06T12:27:17.288Z,98
2022-11-06T12:28:18.772Z,98
2022-11-06T12:29:17.080Z,98
2022-11-06T12:30:17.380Z,98
2022-11-06T12:31:17.593Z,98
2022-11-06T12:32:16.973Z,98
2022-11-06T12:33:17.308Z,98
2022-11-06T12:34:23.966Z,98
2022-11-06T12:35:17.010Z,98
2022-11-06T12:36:17.428Z,98
2022-11-06T12:37:16.719Z,98
2022-11-06T12:38:18.227Z,98
2022-11-06T12:39:17.298Z,98
2022-11-06T12:40:24.672Z,98
2022-11-06T12:42:17.242Z,98
2022-11-06T12:43:17.640Z,98
2022-11-06T12:44:16.924Z,98
2022-11-06T12:45:17.584Z,98
2022-11-06T12:46:16.846Z,98
2022-11-06T12:47:17.255Z,98
2022-11-06T12:48:18.310Z,98
2022-11-06T12:49:17.310Z,98
2022-11-06T12:50:17.752Z,98
2022-11-06T12:51:17.112Z,98
2022-11-06T12:52:17.460Z,98
2022-11-06T12:53:16.783Z,98
2022-11-06T12:54:17.174Z,98
2022-11-06T12:55:17.517Z,98
2022-11-06T12:56:16.901Z,98
2022-11-06T12:57:17.293Z,98
2022-11-06T12:58:19.077Z,98
2022-11-06T12:59:17.012Z,98
2022-11-06T13:00:17.471Z,98
2022-11-06T13:01:17.363Z,98
2022-11-06T13:02:18.216Z,98
2022-11-06T13:03:16.781Z,98
2022-11-06T13:04:17.190Z,98
2022-11-06T13:05:17.561Z,98
2022-11-06T13:06:21.392Z,98
2022-11-06T13:07:17.138Z,101
2022-11-06T13:08:18.088Z,101
2022-11-06T13:09:16.919Z,101
2022-11-06T13:10:17.267Z,101
2022-11-06T13:11:17.637Z,101
2022-11-06T13:12:16.859Z,101
2022-11-06T13:13:23.172Z,101
2022-11-06T13:14:16.724Z,101
2022-11-06T13:15:17.128Z,101
2022-11-06T13:16:17.534Z,101
2022-11-06T13:17:16.875Z,101
2022-11-06T13:18:18.476Z,101
2022-11-06T13:19:17.577Z,101
2022-11-06T13:20:17.107Z,101
2022-11-06T13:21:17.215Z,101
2022-11-06T13:22:17.693Z,101
2022-11-06T13:23:16.869Z,101
2022-11-06T13:24:17.255Z,101
2022-11-06T13:25:17.645Z,101
2022-11-06T13:26:17.017Z,101
2022-11-06T13:27:17.375Z,101
2022-11-06T13:28:17.720Z,101
2022-11-06T13:29:17.144Z,101
2022-11-06T13:30:17.535Z,101
2022-11-06T13:31:16.845Z,101
2022-11-06T13:32:17.394Z,101
2022-11-06T13:33:16.735Z,101
2022-11-06T13:34:17.008Z,101
2022-11-06T13:35:17.272Z,101
2022-11-06T13:36:17.642Z,101
2022-11-06T13:37:16.972Z,101
2022-11-06T13:38:18.528Z,101
2022-11-06T13:39:16.777Z,101
2022-11-06T13:40:17.125Z,101
2022-11-06T13:41:17.557Z,101
2022-11-06T13:42:17.131Z,101
2022-11-06T13:43:17.241Z,101
2022-11-06T13:44:17.516Z,101
2022-11-06T13:45:16.854Z,101
2022-11-06T13:46:17.201Z,101
2022-11-06T13:47:17.591Z,101
2022-11-06T13:48:18.069Z,101
2022-11-06T13:49:17.460Z,101
2022-11-06T13:50:16.908Z,101
2022-11-06T13:51:17.188Z,101
2022-11-06T13:52:17.636Z,101
2022-11-06T13:53:16.955Z,101
2022-11-06T13:54:17.258Z,101
2022-11-06T13:55:17.601Z,101
2022-11-06T13:56:17.344Z,101
2022-11-06T13:57:17.283Z,101
2022-11-06T13:58:19.075Z,101
2022-11-06T13:59:18.377Z,101
2022-11-06T14:00:17.675Z,101